Terminal Aerodrome Forecast
Issued by NWS

Home | Current Version | Previous Version | Text Only | Print | Product List | Glossary On
Versions: 1 2 3 4 5 6 7 8 9 10 11 12 13 14
000
FTUS44 KMAF 052320
TAFPEQ
TAF
KPEQ 052320Z 0600/0624 13012G22KT P6SM SCT080 BKN250
     FM060200 14008KT P6SM OVC200
     FM061200 21005KT P6SM BKN250
     FM061600 19011G21KT P6SM SCT045 BKN250=

USA.gov is the U.S. government's official web portal to all federal, state and local government web resources and services.